3IL9 weather

Sugar Creek Farm Airport
Atlanta, Illinois, United States

Public forecast

Using degrees Fahrenheit for public forecast. Weather courtesy of forecast.io.

Closest aviation weather report (METAR) to Sugar Creek Farm Airport

Closest report is Logan County Airport, 6.8 nm (12.6 km) SSW. Retrieved 2020/07/08 14:35 UTC (7 minutes ago):

KAAA 081435Z AUTO 00000KT 10SM CLR 30/22 A2996 RMK AO2 T02990218

Closest aviation forecast (TAF) to Sugar Creek Farm Airport

Closest forecast is Central Illinois Regional Airport at Bloomington-Normal, 21.6 nm (40.1 km) NE. Retrieved 2020/07/08 12:22 UTC (2 hours ago):

TAF KBMI 081120Z 0812/0912 VRB04KT P6SM SKC FM081600 17006KT P6SM SCT040 FM082100 20007KT P6SM VCTS BKN040CB FM090000 17004KT P6SM SCT250